Forside
METAR-TAF:

METAR-TAF

Lufthavne :

Sarakhs, Iran

Breddekreds: 36-30-04N, længdekreds: 061-03-54E, højde: 288 m

Aktuelle vejr

Denne rapport blev lavet for 49 minutter siden, kl. 18:00 UTC
Vind 4 kt fra vest
Temperatur 6°C
Fugtighed 87%
Tryk 1027 hPa

METAR: OIMC 171800Z AUTO 26004KT //// // ////// 06/04 Q1027

Tid: 22:19 (18:49 UTC)


TAF: fraværende

Vejrobservationer og prognoser fra mere end 4000 lufthavne (METAR og TAF).

De gule og røde prikker repræsenterer de meteorologiske stationer.

Flyt musen over at se navnet på stationen.

Så klik over at se vejr observationer og prognoser.

At skifte det kort: Klik på de grønne knapper med et sort kors for at zoome ind; på den grønne knap med en bindestreg for at zoome ud; eller på de grønne pile for tilstødende kort.


METAR-TAF: